createdAt,value
2022-08-11T00:02:15.030Z,100150.25
2022-08-11T00:04:46.737Z,100140.09
2022-08-11T00:07:17.649Z,100141.72
2022-08-11T00:09:49.517Z,100141.34
2022-08-11T00:12:21.979Z,100138.47
2022-08-11T00:15:02.245Z,100137.25
2022-08-11T00:17:37.166Z,100138.47
2022-08-11T00:20:16.576Z,100144.63
2022-08-11T00:22:50.443Z,100139.28
2022-08-11T00:25:23.417Z,100143.38
2022-08-11T00:27:54.005Z,100147.81
2022-08-11T00:30:24.648Z,100140.50
2022-08-11T00:33:01.510Z,100148.66
2022-08-11T00:35:51.316Z,100143.38
2022-08-11T00:38:32.126Z,100152.34
2022-08-11T00:41:17.221Z,100146.22
2022-08-11T00:44:31.194Z,100146.66
2022-08-11T00:47:19.640Z,100149.50
2022-08-11T00:50:11.000Z,100148.72
2022-08-11T00:53:08.630Z,100148.72
2022-08-11T00:56:32.554Z,100144.25
2022-08-11T00:59:45.552Z,100149.59
2022-08-11T01:02:30.716Z,100147.53
2022-08-11T01:05:44.196Z,100152.88
2022-08-11T01:09:17.971Z,100152.06
2022-08-11T01:12:38.709Z,100148.84
2022-08-11T01:16:02.653Z,100154.97
2022-08-11T01:20:48.123Z,100156.22
2022-08-11T01:23:18.179Z,100147.31
2022-08-11T01:26:51.482Z,100157.91
2022-08-11T01:30:12.758Z,100160.75
2022-08-11T01:34:21.396Z,100162.44
2022-08-11T01:37:38.592Z,100165.69
2022-08-11T01:41:08.833Z,100157.16
2022-08-11T01:44:38.170Z,100158.41
2022-08-11T01:47:53.381Z,100161.25
2022-08-11T01:50:46.871Z,100162.47
2022-08-11T01:53:33.011Z,100155.13
2022-08-11T01:56:23.093Z,100162.00
2022-08-11T01:59:11.209Z,100163.59
2022-08-11T02:02:19.769Z,100161.53
2022-08-11T02:05:08.547Z,100160.75
2022-08-11T02:07:57.577Z,100162.38
2022-08-11T02:10:58.933Z,100159.53
2022-08-11T02:13:48.875Z,100172.94
2022-08-11T02:16:39.610Z,100170.09
2022-08-11T02:19:42.812Z,100174.19
2022-08-11T02:22:48.250Z,100168.13
2022-08-11T02:25:35.800Z,100174.25
2022-08-11T02:28:15.340Z,100164.91
2022-08-11T02:32:24.610Z,100167.75
2022-08-11T02:34:27.833Z,100167.84
2022-08-11T02:37:14.795Z,100167.84
2022-08-11T02:40:21.422Z,100160.53
2022-08-11T02:43:11.046Z,100168.25
2022-08-11T02:46:03.502Z,100169.47
2022-08-11T02:49:10.662Z,100168.69
2022-08-11T02:51:58.368Z,100165.47
2022-08-11T02:54:44.858Z,100167.94
2022-08-11T02:57:30.048Z,100165.09
2022-08-11T03:00:11.298Z,100173.25
2022-08-11T03:02:57.318Z,100162.28
2022-08-11T03:05:52.717Z,100170.03
2022-08-11T03:08:53.045Z,100173.31
2022-08-11T03:12:02.413Z,100177.41
2022-08-11T03:15:08.212Z,100179.88
2022-08-11T03:18:00.220Z,100188.06
2022-08-11T03:20:43.721Z,100179.97
2022-08-11T03:23:32.097Z,100190.91
2022-08-11T03:26:18.074Z,100188.50
2022-08-11T03:29:04.930Z,100197.03
2022-08-11T03:31:44.639Z,100197.47
2022-08-11T03:34:26.179Z,100197.06
2022-08-11T03:37:52.374Z,100199.56
2022-08-11T03:41:02.478Z,100201.22
2022-08-11T03:43:58.300Z,100202.91
2022-08-11T03:46:56.990Z,100206.56
2022-08-11T03:49:56.135Z,100213.88
2022-08-11T03:52:51.096Z,100208.59
2022-08-11T03:55:42.505Z,100218.38
2022-08-11T03:59:21.535Z,100220.50
2022-08-11T04:02:43.717Z,100224.19
2022-08-11T04:06:20.372Z,100223.81
2022-08-11T04:09:52.425Z,100216.09
2022-08-11T04:13:11.714Z,100222.59
2022-08-11T04:16:25.115Z,100229.88
2022-08-11T04:19:55.268Z,100227.84
2022-08-11T04:24:35.189Z,100233.91
2022-08-11T04:26:58.985Z,100233.44
2022-08-11T04:30:05.235Z,100224.38
2022-08-11T04:33:34.216Z,100233.31
2022-08-11T04:37:01.225Z,100235.31
2022-08-11T04:40:16.910Z,100237.31
2022-08-11T04:44:05.586Z,100238.16
2022-08-11T04:48:03.598Z,100239.31
2022-08-11T04:51:16.925Z,100237.63
2022-08-11T04:54:21.446Z,100240.81
2022-08-11T04:57:28.957Z,100248.91
2022-08-11T05:00:26.912Z,100246.00
2022-08-11T05:03:49.406Z,100239.41
2022-08-11T05:07:17.744Z,100245.84
2022-08-11T05:10:21.007Z,100251.47
2022-08-11T05:13:20.172Z,100253.84
2022-08-11T05:16:13.158Z,100240.69
2022-08-11T05:19:11.471Z,100236.53
2022-08-11T05:22:13.680Z,100239.31
2022-08-11T05:25:08.266Z,100240.88
2022-08-11T05:28:05.059Z,100238.31
2022-08-11T05:31:01.707Z,100239.47
2022-08-11T05:34:01.762Z,100246.63
2022-08-11T05:36:44.398Z,100245.69
2022-08-11T05:39:39.416Z,100252.50
2022-08-11T05:42:39.242Z,100250.72
2022-08-11T05:46:02.593Z,100256.38
2022-08-11T05:48:54.849Z,100251.84
2022-08-11T05:51:55.438Z,100261.50
2022-08-11T05:54:46.988Z,100249.59
2022-08-11T05:57:49.855Z,100266.13
2022-08-11T06:00:18.114Z,100265.16
2022-08-11T06:02:55.721Z,100269.94
2022-08-11T06:05:38.402Z,100270.22
2022-08-11T06:08:17.171Z,100272.19
2022-08-11T06:10:49.693Z,100267.66
2022-08-11T06:13:24.146Z,100281.91
2022-08-11T06:15:56.680Z,100274.59
2022-08-11T06:18:28.369Z,100281.91
2022-08-11T06:21:02.794Z,100279.84
2022-08-11T06:23:36.457Z,100282.28
2022-08-11T06:26:13.896Z,100276.94
2022-08-11T06:28:48.030Z,100276.88
2022-08-11T06:31:25.090Z,100275.91
2022-08-11T06:34:11.897Z,100272.09
2022-08-11T06:37:18.580Z,100279.28
2022-08-11T06:40:01.193Z,100275.00
2022-08-11T06:42:58.033Z,100277.59
2022-08-11T06:45:50.785Z,100281.09
2022-08-11T06:48:26.842Z,100273.16
2022-08-11T06:51:15.418Z,100279.88
2022-08-11T06:54:03.511Z,100279.69
2022-08-11T06:57:26.306Z,100284.09
2022-08-11T07:00:07.122Z,100283.63
2022-08-11T07:02:47.884Z,100277.09
2022-08-11T07:05:27.236Z,100283.19
2022-08-11T07:08:59.911Z,100282.38
2022-08-11T07:12:19.205Z,100282.38
2022-08-11T07:15:12.316Z,100276.13
2022-08-11T07:18:12.200Z,100279.59
2022-08-11T07:21:02.526Z,100285.13
2022-08-11T07:23:56.112Z,100289.16
2022-08-11T07:26:46.235Z,100295.22
2022-08-11T07:29:21.791Z,100297.66
2022-08-11T07:31:56.185Z,100297.97
2022-08-11T07:34:36.953Z,100300.00
2022-08-11T07:37:18.299Z,100293.38
2022-08-11T07:39:51.825Z,100291.66
2022-08-11T07:42:30.441Z,100290.41
2022-08-11T07:45:21.803Z,100288.72
2022-08-11T07:48:11.534Z,100291.47
2022-08-11T07:51:02.030Z,100285.22
2022-08-11T07:53:34.241Z,100282.72
2022-08-11T07:56:38.578Z,100281.00
2022-08-11T08:00:00.031Z,100281.72
2022-08-11T08:02:42.204Z,100279.53
2022-08-11T08:05:29.569Z,100276.59
2022-08-11T08:08:17.361Z,100274.09
2022-08-11T08:11:04.764Z,100278.91
2022-08-11T08:13:54.934Z,100282.81
2022-08-11T08:16:42.625Z,100274.50
2022-08-11T08:19:20.729Z,100277.97
2022-08-11T08:21:52.958Z,100269.28
2022-08-11T08:24:25.155Z,100270.78
2022-08-11T08:27:01.304Z,100264.50
2022-08-11T08:29:53.998Z,100263.16
2022-08-11T08:32:26.641Z,100260.16
2022-08-11T08:35:00.635Z,100266.13
2022-08-11T08:37:45.777Z,100260.72
2022-08-11T08:40:17.080Z,100263.53
2022-08-11T08:42:55.695Z,100259.75
2022-08-11T08:45:28.263Z,100259.63
2022-08-11T08:48:04.787Z,100260.81
2022-08-11T08:50:59.454Z,100261.13
2022-08-11T08:53:37.413Z,100262.75
2022-08-11T08:56:29.883Z,100261.47
2022-08-11T08:59:04.111Z,100253.72
2022-08-11T09:01:42.946Z,100253.72
2022-08-11T09:04:17.524Z,100252.09
2022-08-11T09:06:54.201Z,100256.56
2022-08-11T09:09:26.169Z,100255.63
2022-08-11T09:11:57.733Z,100247.41
2022-08-11T09:14:51.240Z,100245.66
2022-08-11T09:17:22.749Z,100247.28
2022-08-11T09:20:01.540Z,100246.13
2022-08-11T09:23:24.259Z,100247.03
2022-08-11T09:26:04.062Z,100237.31
2022-08-11T09:28:37.388Z,100247.97
2022-08-11T09:31:11.293Z,100246.25
2022-08-11T09:33:43.218Z,100243.38
2022-08-11T09:36:33.809Z,100243.75
2022-08-11T09:39:25.193Z,100234.44
2022-08-11T09:42:02.946Z,100243.84
2022-08-11T09:44:50.140Z,100242.59
2022-08-11T09:47:27.995Z,100234.31
2022-08-11T09:50:02.562Z,100239.63
2022-08-11T09:52:52.207Z,100234.69
2022-08-11T09:55:33.294Z,100240.41
2022-08-11T09:58:41.893Z,100246.50
2022-08-11T10:01:08.285Z,100237.44
2022-08-11T10:03:45.631Z,100243.03
2022-08-11T10:06:34.645Z,100242.13
2022-08-11T10:09:09.787Z,100248.22
2022-08-11T10:11:44.410Z,100246.97
2022-08-11T10:14:44.873Z,100240.75
2022-08-11T10:17:19.145Z,100236.16
2022-08-11T10:20:05.408Z,100233.66
2022-08-11T10:22:55.200Z,100243.06
2022-08-11T10:25:42.827Z,100244.66
2022-08-11T10:28:33.155Z,100231.59
2022-08-11T10:31:25.009Z,100233.28
2022-08-11T10:34:04.583Z,100228.03
2022-08-11T10:36:43.508Z,100229.41
2022-08-11T10:39:19.101Z,100231.94
2022-08-11T10:42:12.389Z,100232.75
2022-08-11T10:44:53.346Z,100224.94
2022-08-11T10:47:49.011Z,100224.94
2022-08-11T10:50:37.318Z,100222.06
2022-08-11T10:53:26.956Z,100222.91
2022-08-11T10:56:16.980Z,100217.47
2022-08-11T10:58:52.779Z,100224.81
2022-08-11T11:01:33.341Z,100219.56
2022-08-11T11:04:10.806Z,100216.81
2022-08-11T11:06:53.155Z,100224.72
2022-08-11T11:09:36.076Z,100213.25
2022-08-11T11:12:30.730Z,100228.03
2022-08-11T11:15:21.459Z,100215.78
2022-08-11T11:18:02.021Z,100223.09
2022-08-11T11:20:46.530Z,100215.78
2022-08-11T11:23:22.367Z,100218.63
2022-08-11T11:26:27.039Z,100215.31
2022-08-11T11:29:31.977Z,100217.38
2022-08-11T11:32:25.913Z,100208.00
2022-08-11T11:35:24.372Z,100217.38
2022-08-11T11:38:04.943Z,100210.38
2022-08-11T11:40:37.936Z,100219.34
2022-08-11T11:43:09.412Z,100210.75
2022-08-11T11:45:40.841Z,100215.22
2022-08-11T11:48:14.018Z,100216.47
2022-08-11T11:50:46.758Z,100218.06
2022-08-11T11:53:17.005Z,100207.06
2022-08-11T11:55:52.308Z,100210.75
2022-08-11T11:58:40.925Z,100210.38
2022-08-11T12:01:21.421Z,100207.16
2022-08-11T12:03:56.258Z,100217.03
2022-08-11T12:06:30.546Z,100211.75
2022-08-11T12:09:03.913Z,100204.06
2022-08-11T12:11:52.381Z,100203.41
2022-08-11T12:14:26.957Z,100206.94
2022-08-11T12:17:00.242Z,100199.22
2022-08-11T12:19:35.512Z,100197.19
2022-08-11T12:22:25.580Z,100198.44
2022-08-11T12:25:13.399Z,100191.56
2022-08-11T12:27:44.630Z,100195.34
2022-08-11T12:30:17.465Z,100190.88
2022-08-11T12:32:48.005Z,100185.16
2022-08-11T12:35:19.576Z,100186.28
2022-08-11T12:38:09.897Z,100192.00
2022-08-11T12:41:17.735Z,100187.56
2022-08-11T12:44:07.694Z,100177.03
2022-08-11T12:46:40.448Z,100172.19
2022-08-11T12:49:33.310Z,100169.94
2022-08-11T12:52:15.543Z,100170.13
2022-08-11T12:55:01.953Z,100175.97
2022-08-11T12:57:55.350Z,100182.63
2022-08-11T13:00:44.578Z,100172.50
2022-08-11T13:03:33.486Z,100180.41
2022-08-11T13:06:11.654Z,100183.81
2022-08-11T13:08:44.278Z,100177.75
2022-08-11T13:11:55.993Z,100169.97
2022-08-11T13:14:30.205Z,100171.22
2022-08-11T13:17:20.138Z,100176.13
2022-08-11T13:19:52.326Z,100170.84
2022-08-11T13:22:25.768Z,100170.53
2022-08-11T13:24:59.801Z,100167.75
2022-08-11T13:27:33.250Z,100178.88
2022-08-11T13:30:21.894Z,100182.63
2022-08-11T13:32:54.638Z,100177.81
2022-08-11T13:35:27.802Z,100181.50
2022-08-11T13:38:19.726Z,100188.47
2022-08-11T13:40:56.276Z,100180.00
2022-08-11T13:43:30.083Z,100182.50
2022-08-11T13:46:15.113Z,100188.75
2022-08-11T13:48:45.954Z,100176.63
2022-08-11T13:51:36.171Z,100176.28
2022-08-11T13:54:09.923Z,100176.81
2022-08-11T13:56:45.650Z,100180.59
2022-08-11T13:59:28.222Z,100184.72
2022-08-11T14:02:23.024Z,100172.13
2022-08-11T14:05:00.756Z,100173.44
2022-08-11T14:07:39.626Z,100168.97
2022-08-11T14:10:14.666Z,100178.34
2022-08-11T14:13:10.368Z,100169.78
2022-08-11T14:15:47.680Z,100173.97
2022-08-11T14:18:31.886Z,100173.25
2022-08-11T14:21:22.620Z,100178.31
2022-08-11T14:24:01.468Z,100168.56
2022-08-11T14:26:39.281Z,100171.88
2022-08-11T14:29:14.599Z,100178.84
2022-08-11T14:31:52.422Z,100182.97
2022-08-11T14:34:30.348Z,100173.13
2022-08-11T14:37:06.544Z,100177.59
2022-08-11T14:39:44.810Z,100184.91
2022-08-11T14:42:37.655Z,100179.53
2022-08-11T14:45:54.403Z,100181.63
2022-08-11T14:48:31.161Z,100186.63
2022-08-11T14:51:04.441Z,100178.16
2022-08-11T14:53:36.211Z,100173.78
2022-08-11T14:56:25.917Z,100175.03
2022-08-11T14:58:57.802Z,100183.25
2022-08-11T15:01:46.964Z,100175.56
2022-08-11T15:04:34.928Z,100169.16
2022-08-11T15:07:16.844Z,100165.66
2022-08-11T15:10:12.170Z,100165.28
2022-08-11T15:12:44.412Z,100160.03
2022-08-11T15:15:32.785Z,100166.53
2022-08-11T15:18:08.792Z,100165.75
2022-08-11T15:20:58.798Z,100160.47
2022-08-11T15:23:45.962Z,100161.00
2022-08-11T15:26:42.146Z,100165.56
2022-08-11T15:29:32.783Z,100163.25
2022-08-11T15:32:21.669Z,100164.16
2022-08-11T15:35:15.495Z,100165.03
2022-08-11T15:37:53.361Z,100165.13
2022-08-11T15:40:50.004Z,100155.84
2022-08-11T15:43:47.070Z,100154.31
2022-08-11T15:46:26.109Z,100152.34
2022-08-11T15:49:06.601Z,100154.41
2022-08-11T15:51:43.656Z,100156.47
2022-08-11T15:54:19.732Z,100161.38
2022-08-11T15:56:55.707Z,100156.91
2022-08-11T15:59:46.338Z,100164.69
2022-08-11T16:02:38.266Z,100163.06
2022-08-11T16:05:44.897Z,100162.72
2022-08-11T16:08:10.088Z,100157.09
2022-08-11T16:10:47.154Z,100161.97
2022-08-11T16:13:39.242Z,100168.56
2022-08-11T16:16:19.314Z,100171.53
2022-08-11T16:18:57.597Z,100171.94
2022-08-11T16:21:36.929Z,100167.94
2022-08-11T16:27:01.279Z,100176.13
2022-08-11T16:27:13.911Z,100168.38
2022-08-11T16:29:49.232Z,100176.94
2022-08-11T16:32:24.474Z,100174.09
2022-08-11T16:35:18.249Z,100183.00
2022-08-11T16:38:07.726Z,100181.41
2022-08-11T16:40:40.835Z,100190.41
2022-08-11T16:43:35.435Z,100190.50
2022-08-11T16:46:29.725Z,100192.66
2022-08-11T16:49:02.404Z,100198.00
2022-08-11T16:51:34.755Z,100198.00
2022-08-11T16:54:06.396Z,100202.09
2022-08-11T16:56:45.849Z,100195.56
2022-08-11T16:59:23.378Z,100200.09
2022-08-11T17:01:58.965Z,100203.03
2022-08-11T17:04:57.976Z,100207.59
2022-08-11T17:07:48.879Z,100208.47
2022-08-11T17:10:52.861Z,100209.78
2022-08-11T17:13:36.734Z,100211.50
2022-08-11T17:16:14.514Z,100217.28
2022-08-11T17:18:54.472Z,100224.66
2022-08-11T17:21:30.939Z,100223.91
2022-08-11T17:24:08.961Z,100222.75
2022-08-11T17:26:58.758Z,100226.47
2022-08-11T17:29:54.722Z,100222.44
2022-08-11T17:32:56.669Z,100227.34
2022-08-11T17:35:36.270Z,100231.00
2022-08-11T17:38:12.448Z,100235.81
2022-08-11T17:41:08.573Z,100233.34
2022-08-11T17:43:56.056Z,100237.34
2022-08-11T17:46:45.961Z,100234.06
2022-08-11T17:49:21.397Z,100241.03
2022-08-11T17:52:10.593Z,100238.59
2022-08-11T17:55:06.011Z,100237.00
2022-08-11T17:57:59.018Z,100241.88
2022-08-11T18:00:30.219Z,100244.38
2022-08-11T18:03:23.461Z,100242.72
2022-08-11T18:05:57.076Z,100248.41
2022-08-11T18:08:44.906Z,100246.81
2022-08-11T18:12:11.187Z,100247.22
2022-08-11T18:14:43.859Z,100259.53
2022-08-11T18:17:30.956Z,100262.38
2022-08-11T18:20:18.725Z,100258.72
2022-08-11T18:23:11.678Z,100261.56
2022-08-11T18:26:07.453Z,100264.88
2022-08-11T18:29:04.581Z,100259.94
2022-08-11T18:31:56.468Z,100267.72
2022-08-11T18:34:52.483Z,100259.94
2022-08-11T18:37:46.180Z,100266.09
2022-08-11T18:40:44.045Z,100263.25
2022-08-11T18:43:36.401Z,100262.44
2022-08-11T18:46:30.837Z,100263.34
2022-08-11T18:49:34.891Z,100266.19
2022-08-11T18:52:38.726Z,100264.19
2022-08-11T18:55:37.350Z,100273.13
2022-08-11T18:58:31.857Z,100259.66
2022-08-11T19:01:24.195Z,100265.38
2022-08-11T19:04:17.379Z,100264.13
2022-08-11T19:07:11.505Z,100263.69
2022-08-11T19:10:02.778Z,100260.84
2022-08-11T19:12:59.083Z,100256.38
2022-08-11T19:15:48.298Z,100255.56
2022-08-11T19:18:42.293Z,100256.81
2022-08-11T19:21:32.089Z,100249.06
2022-08-11T19:24:25.775Z,100249.44
2022-08-11T19:27:15.371Z,100242.13
2022-08-11T19:30:12.531Z,100246.59
2022-08-11T19:33:02.703Z,100245.78
2022-08-11T19:35:52.129Z,100248.16
2022-08-11T19:38:40.844Z,100244.53
2022-08-11T19:41:56.575Z,100251.47
2022-08-11T19:44:40.791Z,100239.28
2022-08-11T19:47:32.460Z,100245.84
2022-08-11T19:50:24.487Z,100238.53
2022-08-11T19:53:17.678Z,100239.78
2022-08-11T19:56:07.893Z,100239.78
2022-08-11T19:58:57.446Z,100238.16
2022-08-11T20:02:01.220Z,100237.44
2022-08-11T20:04:54.735Z,100228.94
2022-08-11T20:07:43.996Z,100228.59
2022-08-11T20:10:36.451Z,100229.00
2022-08-11T20:13:27.240Z,100227.06
2022-08-11T20:16:18.554Z,100227.06
2022-08-11T20:19:08.835Z,100230.31
2022-08-11T20:22:02.663Z,100232.75
2022-08-11T20:24:56.665Z,100227.06
2022-08-11T20:27:45.232Z,100243.34
2022-08-11T20:30:33.644Z,100239.25
2022-08-11T20:33:22.526Z,100240.06
2022-08-11T20:36:10.239Z,100250.22
2022-08-11T20:39:00.721Z,100245.78
2022-08-11T20:41:59.089Z,100247.00
2022-08-11T20:44:48.930Z,100246.63
2022-08-11T20:47:59.938Z,100246.63
2022-08-11T20:50:48.360Z,100256.44
2022-08-11T20:53:40.606Z,100250.28
2022-08-11T20:56:31.476Z,100245.81
2022-08-11T20:59:23.124Z,100252.78
2022-08-11T21:02:11.560Z,100248.75
2022-08-11T21:05:00.808Z,100252.03
2022-08-11T21:07:56.824Z,100244.34
2022-08-11T21:10:51.404Z,100245.22
2022-08-11T21:13:46.565Z,100240.31
2022-08-11T21:16:39.340Z,100239.50
2022-08-11T21:20:01.153Z,100237.47
2022-08-11T21:22:59.475Z,100226.50
2022-08-11T21:26:00.556Z,100235.06
2022-08-11T21:28:53.903Z,100224.44
2022-08-11T21:31:43.493Z,100231.38
2022-08-11T21:34:36.341Z,100230.59
2022-08-11T21:37:27.945Z,100221.66
2022-08-11T21:40:18.900Z,100223.34
2022-08-11T21:43:13.563Z,100224.59
2022-08-11T21:46:05.236Z,100232.31
2022-08-11T21:48:55.881Z,100224.22
2022-08-11T21:51:44.624Z,100226.28
2022-08-11T21:54:35.233Z,100226.28
2022-08-11T21:57:23.603Z,100217.72
2022-08-11T22:00:14.166Z,100218.97
2022-08-11T22:03:07.224Z,100214.03
2022-08-11T22:05:57.176Z,100216.09
2022-08-11T22:08:44.688Z,100212.44
2022-08-11T22:11:34.198Z,100219.75
2022-08-11T22:14:23.054Z,100214.03
2022-08-11T22:17:11.084Z,100218.97
2022-08-11T22:20:02.172Z,100210.81
2022-08-11T22:22:53.754Z,100213.25
2022-08-11T22:25:53.698Z,100204.34
2022-08-11T22:28:43.924Z,100205.56
2022-08-11T22:31:33.886Z,100209.22
2022-08-11T22:34:22.449Z,100204.41
2022-08-11T22:37:26.951Z,100208.50
2022-08-11T22:40:17.169Z,100199.56
2022-08-11T22:43:04.943Z,100202.41
2022-08-11T22:45:52.656Z,100203.66
2022-08-11T22:48:43.489Z,100200.81
2022-08-11T22:51:33.467Z,100190.66
2022-08-11T22:54:24.666Z,100195.09
2022-08-11T22:57:13.292Z,100189.03
2022-08-11T23:00:01.761Z,100190.28
2022-08-11T23:02:50.153Z,100191.53
2022-08-11T23:05:38.662Z,100195.19
2022-08-11T23:08:27.033Z,100195.19
2022-08-11T23:11:17.981Z,100197.25
2022-08-11T23:14:06.445Z,100189.94
2022-08-11T23:16:53.727Z,100194.00
2022-08-11T23:20:08.361Z,100191.16
2022-08-11T23:22:53.909Z,100195.25
2022-08-11T23:25:42.091Z,100200.94
2022-08-11T23:28:35.381Z,100198.50
2022-08-11T23:31:23.141Z,100196.50
2022-08-11T23:35:02.381Z,100208.69
2022-08-11T23:37:22.407Z,100201.81
2022-08-11T23:40:10.202Z,100202.63
2022-08-11T23:42:59.253Z,100216.06
2022-08-11T23:45:48.050Z,100218.91
2022-08-11T23:48:38.379Z,100220.13
2022-08-11T23:51:27.826Z,100219.75
2022-08-11T23:54:33.807Z,100224.66
2022-08-11T23:57:25.121Z,100220.22
